Photometre #649[NE_1.6_Dp] Lille AOT

File : 20220925_649.hum

25/09/2022,06:34:19,TEMP=11.2,BA=5.64,STAT.A=9.0,ExtBa=13.23
25/09/2022,06:38:25,TEMP=11.6,BA=5.64,STAT.A=8.5,ExtBa=12.98
25/09/2022,06:43:14,TEMP=11.7,BA=5.56,STAT.A=8.5,ExtBa=12.69
25/09/2022,06:48:56,TEMP=11.8,BA=5.56,STAT.A=9.0,ExtBa=12.81
25/09/2022,06:55:51,TEMP=12.0,BA=5.60,STAT.A=9.0,ExtBa=12.87
25/09/2022,07:04:25,TEMP=12.7,BA=5.64,STAT.A=9.0,ExtBa=12.87
25/09/2022,07:15:17,TEMP=13.6,BA=5.64,STAT.B=9.0,ExtBa=12.93
25/09/2022,07:24:40,TEMP=14.6,BA=5.52,STAT.A=9.0,ExtBa=11.90
25/09/2022,07:26:37,TEMP=15.0,BA=5.52,STAT.A=8.5,ExtBa=12.38
25/09/2022,07:33:02,TEMP=15.1,BA=5.64,STAT.A=9.0,ExtBa=12.79
25/09/2022,07:40:39,TEMP=15.7,BA=5.64,STAT.A=9.0,ExtBa=12.90
25/09/2022,07:49:27,TEMP=16.4,BA=5.64,STAT.C=9.0,ExtBa=12.92
25/09/2022,08:04:02,TEMP=17.1,BA=5.48,STAT.A=9.0,ExtBa=11.84
25/09/2022,08:12:09,TEMP=17.1,BA=5.64,STAT.A=9.0,ExtBa=12.94
25/09/2022,08:27:15,TEMP=18.1,BA=5.64,STAT.A=9.5,ExtBa=12.93
25/09/2022,08:39:49,TEMP=18.8,BA=5.64,STAT.F,ExtBa=12.73
25/09/2022,08:54:48,TEMP=19.7,BA=5.52,STAT.D=9.5,ExtBa=12.31
25/09/2022,09:09:48,TEMP=20.1,BA=5.60,STAT.D=9.5,ExtBa=12.84
25/09/2022,09:24:48,TEMP=20.6,BA=5.60,STAT.D=9.5,ExtBa=12.86
25/09/2022,09:39:49,TEMP=19.3,BA=5.60,STAT.F,ExtBa=12.71
25/09/2022,09:54:48,TEMP=18.8,BA=5.60,STAT.D=9.5,ExtBa=12.83
25/09/2022,10:09:48,TEMP=19.7,BA=5.60,STAT.D=9.5,ExtBa=12.86
25/09/2022,10:24:48,TEMP=18.8,BA=5.60,STAT.D=9.5,ExtBa=12.89
25/09/2022,10:39:50,TEMP=19.8,BA=5.60,STAT.F,ExtBa=12.79
25/09/2022,10:54:48,TEMP=18.4,BA=5.60,STAT.D=9.5,ExtBa=12.91
25/09/2022,11:09:48,TEMP=18.9,BA=5.60,STAT.D=9.5,ExtBa=12.93
25/09/2022,11:24:48,TEMP=20.2,BA=5.60,STAT.D=9.5,ExtBa=12.97
25/09/2022,11:39:27,TEMP=20.7,BA=5.60,STAT.h
25/09/2022,11:54:27,TEMP=20.7,BA=5.60,STAT.h
25/09/2022,12:09:48,TEMP=15.9,BA=5.60,STAT.D=9.5,ExtBa=12.98
25/09/2022,12:24:48,TEMP=16.2,BA=5.60,STAT.D=9.5,ExtBa=12.96
25/09/2022,12:39:27,TEMP=16.3,BA=5.60,STAT.h
25/09/2022,12:54:48,TEMP=13.9,BA=5.60,STAT.D=9.0,ExtBa=12.94
25/09/2022,13:09:48,TEMP=14.3,BA=5.60,STAT.D=9.0,ExtBa=12.91
25/09/2022,13:24:48,TEMP=15.2,BA=5.60,STAT.D=9.0,ExtBa=12.88
25/09/2022,13:39:50,TEMP=16.0,BA=5.60,STAT.F,ExtBa=12.80
25/09/2022,13:54:48,TEMP=16.8,BA=5.60,STAT.D=9.5,ExtBa=12.88
25/09/2022,14:09:47,TEMP=16.4,BA=5.60,STAT.D=9.5,ExtBa=12.93
25/09/2022,14:24:48,TEMP=16.1,BA=5.60,STAT.D=9.5,ExtBa=12.86
25/09/2022,14:39:48,TEMP=16.7,BA=5.60,STAT.F,ExtBa=12.79
25/09/2022,14:52:23,TEMP=16.5,BA=5.60,STAT.A=9.5,ExtBa=12.99
25/09/2022,15:07:29,TEMP=16.1,BA=5.60,STAT.A=9.5,ExtBa=12.99
25/09/2022,15:19:50,TEMP=16.1,BA=5.60,STAT.A=9.5,ExtBa=12.95
25/09/2022,15:30:11,TEMP=16.0,BA=5.56,STAT.C=9.5,ExtBa=12.94
25/09/2022,15:38:59,TEMP=15.6,BA=5.56,STAT.A=9.5,ExtBa=12.95
25/09/2022,15:46:36,TEMP=15.3,BA=5.52,STAT.A=9.5,ExtBa=12.93
25/09/2022,15:53:15,TEMP=15.1,BA=5.60,STAT.A=9.5,ExtBa=12.91
25/09/2022,15:59:07,TEMP=14.9,BA=5.60,STAT.A=9.5,ExtBa=12.92
25/09/2022,16:04:20,TEMP=14.7,BA=5.52,STAT.B=9.0,ExtBa=12.91
25/09/2022,16:15:12,TEMP=14.5,BA=5.60,STAT.A=9.5,ExtBa=12.88
25/09/2022,16:23:45,TEMP=14.5,BA=5.60,STAT.A=9.5,ExtBa=12.87
25/09/2022,16:30:40,TEMP=14.5,BA=5.60,STAT.A=9.0,ExtBa=12.85
25/09/2022,16:36:23,TEMP=14.5,BA=5.60,STAT.A=9.0,ExtBa=12.85
25/09/2022,16:41:10,TEMP=14.4,BA=5.60,STAT.A=9.0,ExtBa=12.84
25/09/2022,16:45:52,TEMP=14.3,BA=5.60,STAT.A=9.0,ExtBa=12.82